Time;durP1;ratioP1;P1;durP2;ratioP2;P2;SDS_P1;SDS_P2;PMS_P1;PMS_P2;Temp;Humidity;BMP_temperature;BMP_pressure;BME280_temperature;BME280_humidity;BME280_pressure;Samples;Min_cycle;Max_cycle;Signal;HPM_P1;HPM_P2
2022/11/19 00:01:11;;;;;;;31.83;16.75;;;;;;;6.52;97.94;100711.78;5044060;28;20029;-65
2022/11/19 00:03:38;;;;;;;32.03;15.93;;;;;;;6.48;97.84;100710.78;5042199;28;20039;-66
2022/11/19 00:06:06;;;;;;;33.58;16.40;;;;;;;6.45;98.00;100713.25;5042543;28;20278;-66
2022/11/19 00:08:32;;;;;;;32.67;16.87;;;;;;;6.42;97.61;100718.31;5047153;28;20183;-66
2022/11/19 00:11:13;;;;;;;35.00;16.08;;;;;;;6.37;97.92;100715.56;5041475;28;20149;-66
2022/11/19 00:13:39;;;;;;;30.42;15.50;;;;;;;6.30;97.52;100723.00;5042174;28;20256;-66
2022/11/19 00:16:07;;;;;;;32.67;15.98;;;;;;;6.26;98.61;100720.31;5043047;28;20199;-66
2022/11/19 00:18:33;;;;;;;31.60;16.52;;;;;;;6.26;98.07;100725.47;5062792;28;20013;-66
2022/11/19 00:21:07;;;;;;;32.67;16.13;;;;;;;6.22;98.29;100726.19;5054961;28;20059;-65
2022/11/19 00:23:32;;;;;;;35.38;16.60;;;;;;;6.21;98.20;100719.25;5060747;28;20088;-66
2022/11/19 00:26:09;;;;;;;33.35;15.52;;;;;;;6.20;98.54;100726.94;5056112;28;20208;-66
2022/11/19 00:28:35;;;;;;;30.42;15.48;;;;;;;6.21;98.34;100724.44;5058641;28;20331;-66
2022/11/19 00:31:11;;;;;;;32.67;16.17;;;;;;;6.15;98.08;100728.47;5049599;28;20026;-66
2022/11/19 00:33:39;;;;;;;33.80;15.75;;;;;;;6.09;97.82;100729.97;5056315;28;20062;-65
2022/11/19 00:36:07;;;;;;;31.25;15.35;;;;;;;6.07;98.16;100733.34;5042197;28;20026;-66
2022/11/19 00:38:33;;;;;;;31.10;15.70;;;;;;;6.05;98.38;100735.88;5046687;28;20153;-65
2022/11/19 00:40:58;;;;;;;29.00;15.63;;;;;;;6.06;98.38;100727.28;5047021;28;20290;-66
2022/11/19 00:46:08;;;;;;;29.08;14.93;;;;;;;6.03;97.74;100742.69;5047670;28;20361;-66
2022/11/19 00:48:33;;;;;;;28.70;14.45;;;;;;;6.02;98.15;100745.22;5031584;28;20108;-66
2022/11/19 00:50:59;;;;;;;29.77;15.60;;;;;;;5.99;97.43;100753.72;5047894;28;20028;-66
2022/11/19 00:53:24;;;;;;;31.50;15.32;;;;;;;5.90;96.22;100754.19;5050170;28;20094;-66
2022/11/19 00:55:49;;;;;;;28.02;14.88;;;;;;;5.79;97.50;100752.00;5049646;28;20013;-65
2022/11/19 00:58:15;;;;;;;31.48;15.30;;;;;;;5.79;97.93;100752.00;5061831;28;20058;-66
2022/11/19 01:00:40;;;;;;;31.80;15.90;;;;;;;5.79;97.70;100749.41;5054673;28;20188;-66
2022/11/19 01:03:05;;;;;;;33.22;15.38;;;;;;;5.77;97.52;100751.06;5055136;28;20021;-66
2022/11/19 01:05:31;;;;;;;32.58;16.42;;;;;;;5.75;97.77;100751.88;5050645;28;20156;-66
2022/11/19 01:07:56;;;;;;;32.13;16.40;;;;;;;5.71;97.36;100755.13;5052260;28;20036;-64
2022/11/19 01:10:21;;;;;;;32.55;16.50;;;;;;;5.66;97.08;100755.75;5060870;28;20024;-64
2022/11/19 01:15:30;;;;;;;33.63;16.48;;;;;;;5.52;97.66;100758.66;5062113;28;20073;-64
2022/11/19 01:17:56;;;;;;;34.22;16.00;;;;;;;5.48;97.86;100766.22;5052546;28;20017;-65
2022/11/19 01:20:21;;;;;;;33.80;15.85;;;;;;;5.45;97.59;100771.25;5060065;28;20029;-65
2022/11/19 01:22:46;;;;;;;34.47;16.42;;;;;;;5.39;97.62;100777.91;5051228;28;20045;-65
2022/11/19 01:25:13;;;;;;;33.47;15.15;;;;;;;5.39;98.35;100783.06;5062480;28;20194;-64
2022/11/19 01:27:38;;;;;;;33.15;16.25;;;;;;;5.39;98.11;100780.50;5055283;28;20044;-64
2022/11/19 01:30:04;;;;;;;32.63;16.52;;;;;;;5.39;98.24;100785.66;5058712;28;20286;-64
2022/11/19 01:32:30;;;;;;;31.08;15.23;;;;;;;5.39;97.99;100787.38;5053276;28;20024;-64
2022/11/19 01:34:55;;;;;;;32.17;15.20;;;;;;;5.40;98.79;100789.13;5059511;28;20017;-64
2022/11/19 01:37:20;;;;;;;32.47;15.75;;;;;;;5.39;98.26;100790.84;5061914;28;20082;-65
2022/11/19 01:39:45;;;;;;;33.92;16.70;;;;;;;5.38;98.15;100795.94;5056244;28;20037;-65
2022/11/19 01:42:48;;;;;;;34.70;15.73;;;;;;;5.36;98.00;100803.63;5057648;28;20039;-66
2022/11/19 01:45:17;;;;;;;31.33;15.10;;;;;;;5.36;97.67;100803.63;5056095;28;20039;-66
2022/11/19 01:47:42;;;;;;;32.88;15.23;;;;;;;5.30;97.44;100799.88;5060294;28;20259;-66
2022/11/19 01:50:07;;;;;;;30.55;15.43;;;;;;;5.27;97.30;100798.06;5061739;28;20021;-65
2022/11/19 01:52:33;;;;;;;30.10;15.40;;;;;;;5.25;97.82;100802.25;5058664;28;20047;-65
2022/11/19 01:54:58;;;;;;;30.85;15.55;;;;;;;5.22;97.51;100808.16;5050705;28;20117;-65
2022/11/19 01:57:23;;;;;;;30.63;14.27;;;;;;;5.26;98.34;100806.63;5059534;28;20030;-66
2022/11/19 01:59:51;;;;;;;32.53;15.10;;;;;;;5.27;97.56;100803.22;5053911;28;20082;-65
2022/11/19 02:02:24;;;;;;;28.67;14.35;;;;;;;5.27;97.14;100807.50;5062181;28;20032;-66
2022/11/19 02:04:50;;;;;;;29.17;14.55;;;;;;;5.28;97.52;100804.97;5054292;28;20025;-65
2022/11/19 02:07:17;;;;;;;28.88;14.55;;;;;;;5.31;97.51;100814.56;5035036;28;20206;-64
2022/11/19 02:09:43;;;;;;;28.85;14.75;;;;;;;5.31;97.38;100817.16;5055600;28;20141;-64
2022/11/19 02:12:23;;;;;;;31.25;14.75;;;;;;;5.30;98.37;100818.84;5045588;28;20076;-64
2022/11/19 02:15:16;;;;;;;25.90;12.70;;;;;;;5.27;96.89;100812.66;5058799;28;20109;-64
2022/11/19 02:18:09;;;;;;;26.23;12.95;;;;;;;5.22;97.06;100815.03;5050810;28;20051;-64
2022/11/19 02:20:52;;;;;;;27.50;12.48;;;;;;;5.19;97.17;100820.94;5052251;28;20047;-64
2022/11/19 02:23:29;;;;;;;24.65;12.75;;;;;;;5.17;96.28;100821.69;5050345;28;20031;-64
2022/11/19 02:26:22;;;;;;;23.00;11.93;;;;;;;5.13;96.60;100814.63;5056542;28;20271;-64
2022/11/19 02:29:29;;;;;;;24.70;12.02;;;;;;;5.08;96.84;100822.16;5054186;28;20029;-64
2022/11/19 02:32:00;;;;;;;20.13;11.52;;;;;;;5.00;96.62;100824.41;5053231;28;20104;-64
2022/11/19 02:34:47;;;;;;;20.95;11.88;;;;;;;4.96;96.10;100817.31;5052703;28;20021;-64
2022/11/19 02:37:22;;;;;;;22.88;11.65;;;;;;;4.88;96.15;100824.72;5056457;28;20037;-64
2022/11/19 02:39:53;;;;;;;21.52;11.45;;;;;;;4.81;96.31;100826.97;5057347;28;20029;-64
2022/11/19 02:42:34;;;;;;;22.95;11.90;;;;;;;4.77;96.41;100819.88;5054213;28;20137;-64
2022/11/19 02:45:06;;;;;;;20.38;11.57;;;;;;;4.72;96.38;100823.94;5054740;28;20032;-64
2022/11/19 02:47:40;;;;;;;21.88;11.43;;;;;;;4.68;96.36;100823.78;5048592;28;20286;-64
2022/11/19 02:50:10;;;;;;;20.83;11.52;;;;;;;4.68;97.00;100828.94;5058447;28;20021;-64
2022/11/19 02:52:38;;;;;;;20.35;11.60;;;;;;;4.69;96.61;100832.41;5057673;28;20023;-64
2022/11/19 02:55:04;;;;;;;19.95;12.02;;;;;;;4.72;97.10;100836.84;5055157;28;20017;-64
2022/11/19 02:57:29;;;;;;;21.65;11.95;;;;;;;4.69;96.88;100838.47;5049801;28;20059;-64
2022/11/19 03:05:37;;;;;;;18.63;11.15;;;;;;;4.66;96.61;100838.34;5055368;28;20025;-64
2022/11/19 03:08:03;;;;;;;;;;;;;;;4.70;96.65;100839.34;5053740;28;20045;-64
2022/11/19 03:10:38;;;;;;;21.27;11.23;;;;;;;4.64;95.95;100847.69;5054098;28;20097;-64
2022/11/19 03:19:06;;;;;;;21.13;11.65;;;;;;;4.60;95.94;100850.06;5053967;28;20028;-64
2022/11/19 03:21:38;;;;;;;20.13;11.43;;;;;;;4.59;95.97;100854.34;5046736;28;20025;-64
2022/11/19 03:24:19;;;;;;;20.33;11.48;;;;;;;4.59;96.19;100856.00;5032515;28;20028;-64
2022/11/19 03:26:56;;;;;;;20.50;11.68;;;;;;;4.56;96.06;100861.03;5055631;28;20323;-64
2022/11/19 03:29:25;;;;;;;23.25;12.63;;;;;;;4.54;95.62;100868.69;5061051;28;20081;-64
2022/11/19 03:31:57;;;;;;;20.65;11.88;;;;;;;4.53;95.92;100861.75;5055193;28;20016;-64
2022/11/19 03:34:26;;;;;;;21.92;11.75;;;;;;;4.51;96.00;100861.69;5058749;28;20251;-64
2022/11/19 03:36:56;;;;;;;21.27;11.73;;;;;;;4.48;95.43;100861.53;5054151;28;20254;-64
2022/11/19 03:39:22;;;;;;;21.70;12.15;;;;;;;4.47;95.08;100856.31;5054875;28;20115;-64
2022/11/19 03:41:49;;;;;;;22.40;12.57;;;;;;;4.45;95.68;100857.94;5050545;28;20052;-64
2022/11/19 03:44:27;;;;;;;22.88;12.65;;;;;;;4.43;95.74;100854.38;5050268;28;20024;-64
2022/11/19 03:47:00;;;;;;;24.92;13.38;;;;;;;4.39;95.87;100861.09;5055751;28;20264;-65
2022/11/19 03:49:32;;;;;;;26.55;13.27;;;;;;;4.37;95.03;100864.41;5050849;28;20013;-65
2022/11/19 03:52:03;;;;;;;23.13;12.82;;;;;;;4.31;94.53;100865.88;5052612;28;20051;-66
2022/11/19 03:54:29;;;;;;;23.60;13.43;;;;;;;4.26;94.88;100866.44;5054627;28;20206;-65
2022/11/19 03:56:57;;;;;;;23.63;12.52;;;;;;;4.23;95.38;100869.78;5053074;28;20268;-65
2022/11/19 03:59:22;;;;;;;25.48;13.25;;;;;;;4.23;95.31;100872.38;5054154;28;20132;-65
2022/11/19 04:01:51;;;;;;;25.02;14.15;;;;;;;4.18;94.95;100873.81;5048339;28;20040;-65
2022/11/19 04:04:36;;;;;;;24.10;13.18;;;;;;;4.13;94.34;100876.19;5057259;28;20100;-65
2022/11/19 04:07:17;;;;;;;27.15;13.88;;;;;;;4.08;95.04;100871.59;5054809;28;20168;-65
2022/11/19 04:09:42;;;;;;;26.25;12.98;;;;;;;4.04;95.60;100874.81;5058355;28;21307;-65
2022/11/19 04:12:15;;;;;;;25.48;13.50;;;;;;;4.02;95.27;100879.91;5052961;28;20028;-65
2022/11/19 04:14:40;;;;;;;29.13;14.07;;;;;;;4.03;95.56;100879.09;5054459;28;20032;-65
2022/11/19 04:17:05;;;;;;;25.13;13.05;;;;;;;4.04;96.01;100880.88;5056776;28;20179;-65
2022/11/19 04:19:31;;;;;;;22.90;12.68;;;;;;;4.04;95.09;100880.88;5053748;28;20017;-66
2022/11/19 04:21:56;;;;;;;27.40;13.52;;;;;;;4.03;95.01;100878.19;5061870;28;20045;-65
2022/11/19 04:24:21;;;;;;;25.00;12.63;;;;;;;3.97;94.52;100892.56;5063640;28;20035;-66
2022/11/19 04:26:47;;;;;;;25.05;14.20;;;;;;;3.89;94.91;100891.28;5065752;28;20041;-65
2022/11/19 04:29:12;;;;;;;24.92;12.93;;;;;;;3.87;94.95;100900.63;5057228;28;20021;-65
2022/11/19 04:31:37;;;;;;;26.73;13.98;;;;;;;3.88;94.44;100911.81;5062865;28;20028;-65
2022/11/19 04:34:02;;;;;;;26.02;13.00;;;;;;;3.86;94.76;100909.16;5063084;28;20038;-65
2022/11/19 04:36:28;;;;;;;27.00;13.43;;;;;;;3.85;94.34;100904.81;5056771;28;20038;-65
2022/11/19 04:38:53;;;;;;;26.58;13.68;;;;;;;3.84;94.76;100915.94;5057285;28;20021;-65
2022/11/19 04:41:18;;;;;;;24.83;13.55;;;;;;;3.83;94.68;100907.31;5054196;28;20025;-65
2022/11/19 04:43:44;;;;;;;25.63;12.93;;;;;;;3.85;95.03;100911.66;5064520;28;20353;-65
2022/11/19 04:46:09;;;;;;;27.27;14.68;;;;;;;3.86;95.38;100922.06;5064073;28;20040;-66
2022/11/19 04:48:34;;;;;;;26.00;13.95;;;;;;;3.86;95.34;100914.31;5066250;28;20027;-65
2022/11/19 04:50:59;;;;;;;24.90;13.70;;;;;;;3.85;94.97;100915.13;5048256;28;20024;-66
2022/11/19 04:53:25;;;;;;;24.88;13.23;;;;;;;3.79;94.95;100923.41;5065900;28;20038;-66
2022/11/19 04:55:50;;;;;;;28.27;14.35;;;;;;;3.78;95.02;100919.09;5048256;28;20171;-66
2022/11/19 04:58:15;;;;;;;26.95;13.98;;;;;;;3.77;95.43;100922.47;5066098;28;20025;-65
2022/11/19 05:00:41;;;;;;;27.60;14.57;;;;;;;3.75;94.43;100916.34;5065800;28;20357;-65
2022/11/19 05:03:06;;;;;;;26.17;13.40;;;;;;;3.74;95.46;100921.44;5053408;28;20071;-65
2022/11/19 05:05:31;;;;;;;28.05;14.38;;;;;;;3.74;95.46;100921.44;5045616;28;20333;-66
2022/11/19 05:07:56;;;;;;;25.08;13.80;;;;;;;3.72;95.32;100926.50;5052931;28;20037;-66
2022/11/19 05:10:22;;;;;;;25.17;13.70;;;;;;;3.71;94.98;100931.56;5060557;28;20019;-65
2022/11/19 05:12:47;;;;;;;26.67;14.30;;;;;;;3.70;95.43;100930.69;5061383;28;20324;-65
2022/11/19 05:15:12;;;;;;;29.17;14.68;;;;;;;3.71;94.97;100942.75;5063483;28;20271;-65
2022/11/19 05:17:38;;;;;;;27.73;13.88;;;;;;;3.74;95.70;100942.91;5058642;28;20234;-64
2022/11/19 05:20:03;;;;;;;27.63;15.15;;;;;;;3.74;95.57;100948.06;5056901;28;20031;-64
2022/11/19 05:22:29;;;;;;;27.83;14.70;;;;;;;3.73;94.96;100948.88;5062217;28;20024;-64
2022/11/19 05:24:55;;;;;;;27.92;14.48;;;;;;;3.72;95.38;100947.13;5052139;28;20048;-64
2022/11/19 05:27:20;;;;;;;29.30;15.40;;;;;;;3.75;95.43;100956.69;5053389;28;20029;-64
2022/11/19 05:29:45;;;;;;;29.42;15.52;;;;;;;3.75;95.38;100955.00;5055090;28;20029;-64
2022/11/19 05:32:10;;;;;;;30.45;16.08;;;;;;;3.76;94.84;100959.34;5050587;28;20177;-64
2022/11/19 05:34:36;;;;;;;28.48;14.98;;;;;;;3.76;94.88;100961.91;5054379;28;20136;-64
2022/11/19 05:37:01;;;;;;;28.58;15.18;;;;;;;3.75;94.87;100959.25;5053068;28;20036;-64
2022/11/19 05:39:26;;;;;;;28.58;15.13;;;;;;;3.74;94.50;100962.66;5052005;28;20279;-64
2022/11/19 05:41:51;;;;;;;28.48;14.32;;;;;;;3.73;94.52;100961.75;5047089;28;20029;-64
2022/11/19 05:44:17;;;;;;;30.20;15.60;;;;;;;3.71;94.88;100967.63;5056911;28;20063;-64
2022/11/19 05:46:42;;;;;;;29.42;15.38;;;;;;;3.69;94.13;100964.09;5056914;28;20092;-66
2022/11/19 05:49:08;;;;;;;27.40;15.23;;;;;;;3.65;93.32;100961.34;5054129;28;20037;-66
2022/11/19 05:51:33;;;;;;;27.92;14.60;;;;;;;3.67;93.27;100955.41;5060725;28;20024;-66
2022/11/19 05:53:58;;;;;;;29.48;15.55;;;;;;;3.63;93.59;100960.38;5048746;28;20020;-66
2022/11/19 05:56:23;;;;;;;29.52;15.70;;;;;;;3.61;94.61;100963.69;5048936;28;20092;-65
2022/11/19 05:58:49;;;;;;;28.80;15.30;;;;;;;3.58;94.38;100967.00;5055650;28;20025;-66
2022/11/19 06:01:14;;;;;;;30.60;16.35;;;;;;;3.56;93.31;100978.88;5051466;28;20025;-66
2022/11/19 06:03:40;;;;;;;31.20;16.05;;;;;;;3.55;92.92;100978.81;5060095;28;20283;-66
2022/11/19 06:06:06;;;;;;;31.75;16.90;;;;;;;3.50;92.68;100988.00;5046038;28;20013;-66
2022/11/19 06:08:31;;;;;;;30.10;15.90;;;;;;;3.51;93.90;100982.03;5055571;28;20061;-66
2022/11/19 06:10:56;;;;;;;33.00;16.50;;;;;;;3.52;93.94;100984.69;5064485;28;20032;-65
2022/11/19 06:13:21;;;;;;;29.63;15.48;;;;;;;3.53;94.29;100991.59;5062534;28;20037;-65
2022/11/19 06:15:47;;;;;;;31.95;16.80;;;;;;;3.53;94.18;100994.19;5048720;28;21252;-66
2022/11/19 06:18:12;;;;;;;31.27;16.80;;;;;;;3.51;94.22;101000.94;5057422;28;20012;-65
2022/11/19 06:20:37;;;;;;;30.40;16.00;;;;;;;3.50;93.82;100995.72;5053707;28;20243;-65
2022/11/19 06:23:03;;;;;;;30.20;16.23;;;;;;;3.47;93.03;101009.31;5054607;28;20044;-66
2022/11/19 06:25:28;;;;;;;32.40;17.15;;;;;;;3.42;92.82;101008.19;5049549;28;20097;-66
2022/11/19 06:27:53;;;;;;;33.80;17.67;;;;;;;3.37;92.71;101014.75;5046195;28;20017;-65
2022/11/19 06:30:19;;;;;;;31.20;16.95;;;;;;;3.34;92.68;101027.47;5057610;28;20024;-66
2022/11/19 06:32:44;;;;;;;32.25;17.50;;;;;;;3.33;92.88;101025.69;5061366;28;20025;-66
2022/11/19 06:35:09;;;;;;;32.80;17.73;;;;;;;3.30;93.26;101031.53;5050357;28;20070;-66
2022/11/19 06:37:35;;;;;;;35.63;18.20;;;;;;;3.25;92.27;101031.28;5056300;28;20017;-66
2022/11/19 06:40:01;;;;;;;32.08;17.17;;;;;;;3.22;92.01;101023.41;5058091;28;20290;-66
2022/11/19 06:42:35;;;;;;;33.83;17.92;;;;;;;3.13;91.37;101033.19;5055873;28;20299;-66
2022/11/19 06:45:12;;;;;;;32.40;16.63;;;;;;;3.10;92.84;101043.28;5047587;28;20028;-66
2022/11/19 06:47:39;;;;;;;33.53;17.35;;;;;;;3.12;92.99;101031.41;5057677;28;20017;-66
2022/11/19 06:50:06;;;;;;;31.52;16.88;;;;;;;3.08;93.03;101038.06;5052547;28;20025;-65
2022/11/19 06:52:32;;;;;;;35.40;18.35;;;;;;;3.05;93.59;101040.47;5060726;28;20082;-66
2022/11/19 06:54:57;;;;;;;34.42;17.83;;;;;;;3.05;93.33;101044.72;5056777;28;20044;-65
2022/11/19 06:57:22;;;;;;;36.13;18.45;;;;;;;3.06;93.32;101041.38;5056775;28;20017;-65
2022/11/19 06:59:47;;;;;;;34.42;17.98;;;;;;;3.05;92.78;101039.59;5058899;28;20021;-66
2022/11/19 07:02:13;;;;;;;34.80;18.50;;;;;;;3.01;93.23;101047.94;5052048;28;20168;-65
2022/11/19 07:04:38;;;;;;;32.92;17.10;;;;;;;3.06;94.05;101046.53;5044287;28;20084;-65
2022/11/19 07:07:04;;;;;;;34.92;17.75;;;;;;;3.08;92.82;101053.50;5043268;28;20049;-65
2022/11/19 07:09:30;;;;;;;35.00;16.92;;;;;;;3.04;92.13;101060.97;5044212;28;20018;-66
2022/11/19 07:11:55;;;;;;;34.50;17.23;;;;;;;3.02;92.35;101065.16;5051641;28;20066;-66
2022/11/19 07:14:20;;;;;;;35.17;17.08;;;;;;;2.99;91.61;101065.84;5044586;28;20024;-66
2022/11/19 07:16:46;;;;;;;35.70;18.20;;;;;;;2.94;91.12;101065.59;5046360;28;20029;-65
2022/11/19 07:19:11;;;;;;;37.13;18.02;;;;;;;2.89;91.43;101074.72;5053957;28;20029;-66
2022/11/19 07:21:36;;;;;;;37.00;19.20;;;;;;;2.87;91.72;101076.34;5051958;28;20036;-66
2022/11/19 07:24:05;;;;;;;35.38;17.67;;;;;;;2.85;91.27;101075.34;5055725;28;20025;-66
2022/11/19 07:26:32;;;;;;;35.90;17.88;;;;;;;2.83;92.13;101076.06;5056421;28;20252;-66
2022/11/19 07:29:04;;;;;;;33.80;17.38;;;;;;;2.80;90.92;101069.06;5053167;28;20108;-66
2022/11/19 07:31:30;;;;;;;37.22;17.60;;;;;;;2.79;91.78;101077.56;5053708;28;20092;-66
2022/11/19 07:33:56;;;;;;;36.45;18.70;;;;;;;2.77;90.00;101079.19;5047846;28;20025;-66
2022/11/19 07:36:21;;;;;;;36.72;17.33;;;;;;;2.74;91.83;101085.03;5044928;28;20246;-65
2022/11/19 07:38:47;;;;;;;35.38;17.40;;;;;;;2.76;91.38;101090.25;5050393;28;20024;-66
2022/11/19 07:43:56;;;;;;;35.30;17.70;;;;;;;2.72;90.25;101096.00;5051622;28;20033;-66
2022/11/19 07:46:22;;;;;;;35.67;17.20;;;;;;;2.70;90.54;101098.50;5053019;28;20024;-65
2022/11/19 07:48:52;;;;;;;34.13;17.33;;;;;;;2.69;91.27;101103.56;5053284;28;20032;-66
2022/11/19 07:51:17;;;;;;;35.80;17.23;;;;;;;2.66;90.93;101100.81;5061856;28;20059;-66
2022/11/19 07:53:43;;;;;;;36.45;17.65;;;;;;;2.68;91.48;101106.91;5053507;28;20025;-66
2022/11/19 07:56:08;;;;;;;37.15;18.20;;;;;;;2.63;90.69;101111.78;5056935;28;20013;-66
2022/11/19 07:58:33;;;;;;;35.58;17.38;;;;;;;2.60;90.38;101106.47;5060751;28;20074;-66
2022/11/19 08:01:13;;;;;;;35.80;18.20;;;;;;;2.58;90.68;101108.06;5051454;28;20052;-66
2022/11/19 08:03:41;;;;;;;34.03;16.50;;;;;;;2.60;90.80;101104.78;5047673;28;20032;-66
2022/11/19 08:06:07;;;;;;;34.92;17.65;;;;;;;2.58;91.10;101111.53;5037662;28;20048;-66
2022/11/19 08:08:33;;;;;;;38.90;18.02;;;;;;;2.56;89.39;101105.41;5046515;28;20033;-66
2022/11/19 08:11:03;;;;;;;34.25;17.60;;;;;;;2.54;90.13;101116.41;5050499;28;20021;-66
2022/11/19 08:13:28;;;;;;;37.88;17.40;;;;;;;2.56;90.53;101117.34;5048586;28;20052;-66
2022/11/19 08:15:58;;;;;;;33.45;16.95;;;;;;;2.61;91.33;101124.56;5049743;28;20113;-66
2022/11/19 08:18:24;;;;;;;34.58;17.33;;;;;;;2.65;90.95;101125.66;5046216;28;20025;-66
2022/11/19 08:20:49;;;;;;;34.35;17.02;;;;;;;2.67;89.73;101128.31;5044017;28;20291;-66
2022/11/19 08:23:14;;;;;;;36.70;17.70;;;;;;;2.66;90.99;101123.97;5045939;28;20083;-66
2022/11/19 08:25:42;;;;;;;33.55;16.50;;;;;;;2.66;90.84;101123.97;5049290;28;20035;-66
2022/11/19 08:28:08;;;;;;;33.83;17.27;;;;;;;2.66;90.44;101127.41;5047221;28;20060;-66
2022/11/19 08:30:33;;;;;;;35.80;17.38;;;;;;;2.66;89.98;101131.66;5053446;28;20172;-66
2022/11/19 08:32:58;;;;;;;35.28;16.55;;;;;;;2.68;90.31;101132.63;5044966;28;20026;-66
2022/11/19 08:35:24;;;;;;;34.40;16.85;;;;;;;2.71;91.19;101136.31;5048591;28;20040;-66
2022/11/19 08:37:50;;;;;;;34.85;17.00;;;;;;;2.72;90.08;101137.19;5043973;28;20021;-66
2022/11/19 08:40:16;;;;;;;33.83;17.80;;;;;;;2.73;89.81;101133.81;5046576;28;20040;-66
2022/11/19 08:42:59;;;;;;;32.30;16.70;;;;;;;2.70;89.44;101139.66;5050546;28;20112;-66
2022/11/19 08:45:30;;;;;;;34.13;17.60;;;;;;;2.69;89.53;101134.44;5044300;28;20033;-66
2022/11/19 08:47:57;;;;;;;37.53;17.92;;;;;;;2.67;89.04;101141.19;5050267;28;20064;-66
2022/11/19 08:50:23;;;;;;;34.28;17.17;;;;;;;2.61;88.37;101137.44;5043339;28;20274;-65
2022/11/19 08:52:53;;;;;;;35.42;17.55;;;;;;;2.58;89.28;101144.09;5061144;28;20163;-66
2022/11/19 08:55:18;;;;;;;36.33;17.23;;;;;;;2.54;89.01;101148.13;5052887;28;20120;-66
2022/11/19 08:57:43;;;;;;;32.45;16.85;;;;;;;2.54;89.26;101137.84;5058519;28;20218;-66
2022/11/19 09:00:09;;;;;;;34.65;17.45;;;;;;;2.53;89.97;101143.78;5067985;28;20021;-66
2022/11/19 09:02:35;;;;;;;36.35;16.65;;;;;;;2.55;89.05;101142.22;5064028;28;20024;-65
2022/11/19 09:05:00;;;;;;;37.20;17.15;;;;;;;2.57;89.83;101144.88;5049278;28;20024;-66
2022/11/19 09:07:26;;;;;;;32.65;17.00;;;;;;;2.58;90.65;101151.81;5057459;28;20283;-65
2022/11/19 09:09:52;;;;;;;36.20;17.27;;;;;;;2.56;89.59;101149.13;5063121;28;20023;-66
2022/11/19 09:12:17;;;;;;;31.15;16.08;;;;;;;2.56;89.63;101150.81;5055581;28;20025;-66
2022/11/19 09:14:42;;;;;;;33.90;16.35;;;;;;;2.55;90.53;101149.91;5057212;28;20017;-66
2022/11/19 09:17:07;;;;;;;34.75;16.65;;;;;;;2.59;90.95;101157.03;5054237;28;20017;-66
2022/11/19 09:19:33;;;;;;;34.00;16.63;;;;;;;2.62;90.73;101151.16;5053322;28;20055;-65
2022/11/19 09:21:58;;;;;;;33.50;16.20;;;;;;;2.63;89.60;101152.94;5055617;28;20259;-65
2022/11/19 09:24:23;;;;;;;32.80;16.45;;;;;;;2.65;90.01;101155.63;5049704;28;20013;-66
2022/11/19 09:26:48;;;;;;;33.15;17.05;;;;;;;2.65;89.88;101159.09;5055211;28;20029;-65
2022/11/19 09:29:14;;;;;;;30.17;15.15;;;;;;;2.66;89.53;101172.84;5052996;28;20347;-66
2022/11/19 09:31:39;;;;;;;34.88;16.55;;;;;;;2.65;88.05;101173.63;5060318;28;20020;-65
2022/11/19 09:34:04;;;;;;;31.52;16.15;;;;;;;2.59;88.63;101175.03;5055570;28;20068;-66
2022/11/19 09:36:30;;;;;;;30.48;14.82;;;;;;;2.60;88.75;101178.50;5045678;28;20342;-65
2022/11/19 09:38:56;;;;;;;30.15;15.27;;;;;;;2.58;88.47;101180.97;5047541;28;20299;-66
2022/11/19 09:41:38;;;;;;;32.45;15.60;;;;;;;2.58;88.75;101180.09;5045532;28;20024;-66
2022/11/19 09:44:29;;;;;;;31.17;14.75;;;;;;;2.60;88.83;101187.09;5050021;28;20060;-65
2022/11/19 09:47:21;;;;;;;32.08;14.93;;;;;;;2.64;89.06;101195.03;5055746;28;20021;-65
2022/11/19 09:50:08;;;;;;;32.30;15.55;;;;;;;2.63;89.51;101199.25;5052843;28;20033;-68
2022/11/19 09:52:41;;;;;;;31.23;15.65;;;;;;;2.57;88.39;101197.19;5052974;28;20028;-68
2022/11/19 09:55:15;;;;;;;32.53;15.48;;;;;;;2.55;88.16;101209.09;5056288;28;20024;-68
2022/11/19 09:58:13;;;;;;;32.78;15.88;;;;;;;2.52;88.88;101210.56;5054936;28;20053;-68
2022/11/19 10:00:38;;;;;;;31.85;15.38;;;;;;;2.50;87.70;101207.91;5029010;28;20348;-68
2022/11/19 10:03:13;;;;;;;33.47;16.02;;;;;;;2.49;88.50;101211.28;5058260;28;20025;-68
2022/11/19 10:06:16;;;;;;;31.77;15.63;;;;;;;2.51;88.43;101201.97;5061760;28;20083;-68
2022/11/19 10:08:56;;;;;;;28.50;13.98;;;;;;;2.51;88.64;101212.25;5061530;28;20095;-68
2022/11/19 10:11:49;;;;;;;29.50;14.80;;;;;;;2.45;87.44;101209.31;5051077;28;20024;-68
2022/11/19 10:14:49;;;;;;;30.30;15.70;;;;;;;2.42;88.59;101220.28;5060219;28;20024;-68
2022/11/19 10:17:32;;;;;;;32.78;15.57;;;;;;;2.42;88.82;101230.56;5055879;28;20156;-68
2022/11/19 10:20:30;;;;;;;30.00;14.60;;;;;;;2.40;88.53;101220.97;5062535;28;20056;-69
2022/11/19 10:23:00;;;;;;;33.75;16.25;;;;;;;2.38;88.63;101218.31;5001139;28;20036;-68
2022/11/19 10:25:32;;;;;;;30.23;14.98;;;;;;;2.37;87.17;101223.38;5054268;28;20041;-68
2022/11/19 10:28:10;;;;;;;32.17;15.75;;;;;;;2.32;88.59;101219.59;5060803;28;20020;-68
2022/11/19 10:30:39;;;;;;;31.77;14.80;;;;;;;2.29;87.50;101224.56;5060433;28;20179;-68
2022/11/19 10:33:17;;;;;;;32.58;15.05;;;;;;;2.26;88.43;101227.84;5064162;28;20037;-68
2022/11/19 10:35:50;;;;;;;30.88;14.18;;;;;;;2.26;88.39;101233.88;5039745;28;20172;-68
2022/11/19 10:38:47;;;;;;;27.15;14.25;;;;;;;2.25;88.50;101237.22;5062169;28;20017;-68
2022/11/19 10:41:36;;;;;;;28.40;14.18;;;;;;;2.25;88.08;101231.19;5060093;28;20048;-68
2022/11/19 10:44:40;;;;;;;30.85;14.60;;;;;;;2.29;88.28;101232.28;5051593;28;20033;-68
2022/11/19 10:47:13;;;;;;;32.10;15.25;;;;;;;2.27;87.01;101224.47;5061113;28;20035;-68
2022/11/19 10:49:41;;;;;;;29.77;14.10;;;;;;;2.22;87.97;101229.31;5052799;28;20096;-68
2022/11/19 10:52:20;;;;;;;29.58;14.45;;;;;;;2.19;87.45;101230.81;5057416;28;20296;-68
2022/11/19 10:54:46;;;;;;;;;;;;;;;2.18;88.62;101227.34;5056673;28;20227;-68
2022/11/19 10:57:15;;;;;;;27.25;13.52;;;;;;;2.12;87.58;101224.38;5054225;28;20155;-64
2022/11/19 10:59:41;;;;;;;31.48;14.18;;;;;;;2.10;87.74;101231.13;5057859;28;20013;-65
2022/11/19 11:02:41;;;;;;;29.50;13.68;;;;;;;2.10;88.79;101233.69;5052545;28;20088;-65
2022/11/19 11:05:14;;;;;;;28.73;14.32;;;;;;;2.14;88.98;101235.66;5039155;28;20033;-64
2022/11/19 11:07:48;;;;;;;31.48;14.80;;;;;;;2.21;88.74;101235.25;5057272;28;20020;-64
2022/11/19 11:10:27;;;;;;;27.67;14.00;;;;;;;2.26;89.41;101227.84;5053811;28;20020;-64
2022/11/19 11:15:49;;;;;;;26.48;13.30;;;;;;;2.21;87.47;101231.78;5056209;28;20024;-64
2022/11/19 11:18:15;;;;;;;29.33;13.93;;;;;;;2.22;88.42;101231.88;5060479;28;20157;-64
2022/11/19 11:20:46;;;;;;;27.08;13.88;;;;;;;2.25;89.05;101232.09;5062789;28;20239;-64
2022/11/19 11:23:21;;;;;;;28.65;14.00;;;;;;;2.28;88.75;101225.38;5055626;28;20885;-65
2022/11/19 11:26:03;;;;;;;27.25;13.25;;;;;;;2.26;88.13;101228.72;5061412;28;20031;-65
2022/11/19 11:28:28;;;;;;;26.27;13.43;;;;;;;2.23;87.17;101238.81;5055251;28;20164;-68
2022/11/19 11:30:58;;;;;;;26.30;13.32;;;;;;;2.18;87.61;101237.63;5063879;28;20021;-68
2022/11/19 11:33:23;;;;;;;23.40;12.35;;;;;;;2.19;87.56;101229.13;5056298;28;20021;-68
2022/11/19 11:35:51;;;;;;;25.70;12.25;;;;;;;2.21;87.46;101231.78;5056868;28;20102;-68
2022/11/19 11:38:20;;;;;;;23.35;11.73;;;;;;;2.19;87.13;101223.09;5052371;28;20021;-69
2022/11/19 11:41:06;;;;;;;27.33;12.75;;;;;;;2.19;87.38;101220.53;5061498;28;20021;-68
2022/11/19 11:43:34;;;;;;;22.55;12.07;;;;;;;2.17;86.61;101214.38;5059406;28;20041;-68
2022/11/19 11:46:03;;;;;;;25.17;12.38;;;;;;;2.20;87.45;101212.00;5053411;28;20231;-68
2022/11/19 11:48:40;;;;;;;24.33;12.68;;;;;;;2.27;88.83;101216.75;5053049;28;20183;-68
2022/11/19 11:51:05;;;;;;;23.40;12.30;;;;;;;2.32;88.29;101223.09;5063017;28;20017;-68